D/T METAR WX W/DIR W/SPE G/SPE TEMP DEWP
22/01/20 06:50 EGXT 220650Z 29006KT 0050 FG SCT001 04/04 Q1036 RED FG WNW (290°) 6.9mph 4°C 4°C
22/01/20 05:50 EGXT 220550Z AUTO 29005KT 2700 BR OVC017/// 06/06 Q1036 BR WNW (290°) 5.8mph 6°C 6°C
22/01/20 04:50 EGXT 220450Z AUTO 30006KT 2400 BR OVC017/// 06/06 Q1036 BR WNW (300°) 6.9mph 6°C 6°C
22/01/20 03:50 EGXT 220350Z AUTO 29007KT 2100 BKN017/// 05/05 Q1036 WNW (290°) 8.1mph 5°C 5°C
22/01/20 02:50 EGXT 220250Z AUTO 28008KT 1300 FEW001/// OVC016/// 05/05 Q1037 W (280°) 9.2mph 5°C 5°C
22/01/20 01:50 EGXT 220150Z AUTO 28008KT 0400 FG OVC001/// 05/05 Q1037 FG W (280°) 9.2mph 5°C 5°C
22/01/20 00:50 EGXT 220050Z AUTO 26004KT 1600 BR OVC003/// 04/04 Q1037 BR W (260°) 4.6mph 4°C 4°C
21/01/20 23:50 EGXT 212350Z AUTO 29004KT 1100 BR OVC002/// 04/04 Q1038 BR WNW (290°) 4.6mph 4°C 4°C
21/01/20 22:50 EGXT 212250Z AUTO 29003KT 1600 BR OVC003/// 04/04 Q1038 BR WNW (290°) 3.5mph 4°C 4°C
21/01/20 21:50 EGXT 212150Z AUTO 30004KT 1800 BR BKN004/// SCT012/// 04/04 Q1038 BR WNW (300°) 4.6mph 4°C 4°C
21/01/20 20:50 EGXT 212050Z AUTO 28006KT 1700 BR FEW014/// 02/01 Q1038 BR W (280°) 6.9mph 2°C 1°C
21/01/20 19:50 EGXT 211950Z AUTO 27008KT 2900 BR SCT016/// 02/02 Q1038 BR W (270°) 9.2mph 2°C 2°C
21/01/20 18:50 EGXT 211850Z AUTO 27007KT 4700 BR BKN018/// 03/02 Q1038 BR W (270°) 8.1mph 3°C 2°C
21/01/20 17:50 EGXT 211750Z AUTO 26007KT 8000 BR BKN019/// 02/02 Q1038 BR W (260°) 8.1mph 2°C 2°C
21/01/20 16:50 EGXT 211650Z AUTO 26006KT 9999 NCD 03/02 Q1038 W (260°) 6.9mph 3°C 2°C
21/01/20 15:50 EGXT 211550Z 29005KT CAVOK 06/03 Q1038 RMK BLU WNW (290°) 5.8mph 6°C 3°C
21/01/20 15:19 EGXT 211519Z 28004KT 9999 FEW025 07/04 Q1038 RMK BLU W (280°) 4.6mph 7°C 4°C
21/01/20 14:50 EGXT 211450Z 28006KT 9999 FEW025 07/04 Q1039 BLU W (280°) 6.9mph 7°C 4°C
21/01/20 14:21 EGXT 211421Z 26005KT 9999 FEW025 07/04 Q1039 RMK BLU W (260°) 5.8mph 7°C 4°C
21/01/20 13:50 EGXT 211350Z 25006KT 9999 FEW025 06/04 Q1039 RMK BLU WSW (250°) 6.9mph 6°C 4°C
21/01/20 13:21 EGXT 211321Z 27007KT CAVOK 06/04 Q1039 RMK BLU W (270°) 8.1mph 6°C 4°C
21/01/20 12:50 EGXT 211250Z 26005KT CAVOK 06/03 Q1039 W (260°) 5.8mph 6°C 3°C
21/01/20 12:19 EGXT 211219Z 23007KT CAVOK 05/03 Q1040 RMK BLU SW (230°) 8.1mph 5°C 3°C
21/01/20 11:50 EGXT 211150Z 25005KT CAVOK 05/04 Q1040 BLU WSW (250°) 5.8mph 5°C 4°C
21/01/20 11:20 EGXT 211120Z 23004KT CAVOK 04/03 Q1041 RMK BLU SW (230°) 4.6mph 4°C 3°C
21/01/20 10:50 EGXT 211050Z 24005KT 5000 BR FEW050 03/03 Q1041 RMK WHT BR WSW (240°) 5.8mph 3°C 3°C
21/01/20 10:21 EGXT 211021Z 28006KT 4000 BR FEW020 02/02 Q1041 RMK GRN BR W (280°) 6.9mph 2°C 2°C
21/01/20 09:50 EGXT 210950Z 24005KT 4000 BR FEW020 01/01 Q1041 RMK GRN BR WSW (240°) 5.8mph 1°C 1°C
21/01/20 09:20 EGXT 210920Z 26005KT 3000 BR FEW030 M00/M01 Q1041 RMK YLO1 BR W (260°) 5.8mph 0°C -1°C
21/01/20 08:50 EGXT 210850Z 27004KT 2500 BR FEW025 M01/M01 Q1041 YLO1 BR W (270°) 4.6mph -1°C -1°C
21/01/20 08:20 EGXT 210820Z 28005KT 2600 BR FEW025 M01/M02 Q1041 RMK YLO1 BR W (280°) 5.8mph -1°C -2°C
21/01/20 07:50 EGXT 210750Z 27003KT 2500 BR FEW025 M02/M02 Q1041 RMK YLO 1 BR W (270°) 3.5mph -2°C -2°C
21/01/20 07:05 EGXT 210705Z 28007KT 2600 BR SKC M01/M02 Q1041 RMK YLO1 BR W (280°) 8.1mph -1°C -2°C
21/01/20 05:50 EGXT 210550Z AUTO 26002KT 1600 BR NCD M01/M02 Q1040 BR W (260°) 2.3mph -1°C -2°C
21/01/20 04:50 EGXT 210450Z AUTO 28006KT 3100 BR NCD M01/M01 Q1041 BR W (280°) 6.9mph -1°C -1°C
21/01/20 03:50 EGXT 210350Z AUTO 27005KT 3100 BR NCD M01/M01 Q1041 BR W (270°) 5.8mph -1°C -1°C
21/01/20 02:50 EGXT 210250Z AUTO 28008KT 5000 BR NCD 00/00 Q1041 BR W (280°) 9.2mph 0°C 0°C
21/01/20 01:50 EGXT 210150Z AUTO 28007KT 5000 BR NCD 00/M00 Q1041 BR W (280°) 8.1mph 0°C 0°C
21/01/20 00:50 EGXT 210050Z AUTO 28006KT 5000 BR NCD M01/M01 Q1042 BR W (280°) 6.9mph -1°C -1°C
20/01/20 23:50 EGXT 202350Z AUTO 26007KT 7000 BR NCD 01/00 Q1042 BR W (260°) 8.1mph 1°C 0°C
20/01/20 22:50 EGXT 202250Z AUTO 25007KT 9999 NCD 01/00 Q1043 WSW (250°) 8.1mph 1°C 0°C
20/01/20 21:50 EGXT 202150Z AUTO 27006KT 8000 BR NCD 00/M00 Q1043 BR W (270°) 6.9mph 0°C 0°C
20/01/20 20:50 EGXT 202050Z AUTO 25005KT 9000 BR NCD 01/M00 Q1043 BR WSW (250°) 5.8mph 1°C 0°C
20/01/20 19:50 EGXT 201950Z AUTO 26007KT 9999 NCD 01/M00 Q1043 W (260°) 8.1mph 1°C 0°C
20/01/20 18:50 EGXT 201850Z AUTO 25009KT 9999 NCD 03/01 Q1044 WSW (250°) 10.4mph 3°C 1°C
20/01/20 17:50 EGXT 201750Z AUTO 25007KT 9999 NCD 03/02 Q1044 WSW (250°) 8.1mph 3°C 2°C
20/01/20 16:50 EGXT 201650Z AUTO 24005KT 9999 NCD 03/01 Q1044 WSW (240°) 5.8mph 3°C 1°C
20/01/20 15:50 EGXT 201550Z 24005KT CAVOK 05/02 Q1044 BLU WSW (240°) 5.8mph 5°C 2°C